This is the latest recevied weather packets stored in our database for station/object OSTR-WX. If no packets are shown the sender has not sent any weather packets the latest 10 day(s).
| Time | Temp. | Humidity | Pressure | Rain* | Wind** | Luminosity | Snow |
|---|---|---|---|---|---|---|---|
| 1777530520 | 2.78° C | 77% | 1033.8 hPa | - | - | - | - |
| 1777529570 | 1.67° C | 80% | 1033.9 hPa | - | - | - | - |
| 1777529563 | 1.67° C | 80% | 1033.9 hPa | - | - | - | - |
| 1777528614 | 0.56° C | 83% | 1034 hPa | - | - | - | - |
| 1777528606 | 0.56° C | 83% | 1034 hPa | - | - | - | - |
| 1777527649 | -0.56° C | 85% | 1034.1 hPa | - | - | - | - |
| 1777526692 | -1.67° C | 87% | 1034.3 hPa | - | - | - | - |
| 1777525736 | -2.78° C | 88% | 1034.4 hPa | - | - | - | - |
| 1777524778 | -2.78° C | 89% | 1034.4 hPa | - | - | - | - |
| 1777523821 | -3.33° C | 91% | 1034.4 hPa | - | - | - | - |
| 1777522864 | -3.89° C | 91% | 1034.3 hPa | - | - | - | - |
| 1777521913 | -4.44° C | 90% | 1034.3 hPa | - | - | - | - |
| 1777521906 | -4.44° C | 90% | 1034.3 hPa | - | - | - | - |
| 1777520956 | -4.44° C | 91% | 1034.3 hPa | - | - | - | - |
| 1777520950 | -4.44° C | 91% | 1034.3 hPa | - | - | - | - |
| 1777520001 | -4.44° C | 90% | 1034.3 hPa | - | - | - | - |
| 1777519993 | -4.44° C | 90% | 1034.3 hPa | - | - | - | - |
| 1777519044 | -4.44° C | 90% | 1034.3 hPa | - | - | - | - |
| 1777519036 | -4.44° C | 90% | 1034.3 hPa | - | - | - | - |
| 1777518088 | -4.44° C | 89% | 1034.3 hPa | - | - | - | - |
| 1777518081 | -4.44° C | 89% | 1034.3 hPa | - | - | - | - |
| 1777517128 | -4.44° C | 89% | 1034.1 hPa | - | - | - | - |
| 1777517122 | -4.44° C | 89% | 1034.1 hPa | - | - | - | - |
| 1777516165 | -4.44° C | 89% | 1034.1 hPa | - | - | - | - |
| 1777515214 | -3.89° C | 89% | 1034 hPa | - | - | - | - |
* Rain since midnight (hover to see other rain measurements)
** Current wind speed in m/s (hover to see current wind gust speed)